sensor_id;sensor_type;location;lat;lon;timestamp;pressure;altitude;pressure_sealevel;temperature;humidity
19783;BME280;10051;40.294;-3.754;2022-10-26T00:01:27;94427.13;;;17.33;74.05
19783;BME280;10051;40.294;-3.754;2022-10-26T00:03:54;94437.44;;;17.35;74.16
19783;BME280;10051;40.294;-3.754;2022-10-26T00:06:22;94432.75;;;17.32;74.02
19783;BME280;10051;40.294;-3.754;2022-10-26T00:08:49;94384.78;;;17.11;74.08
19783;BME280;10051;40.294;-3.754;2022-10-26T00:11:16;94428.53;;;17.31;73.75
19783;BME280;10051;40.294;-3.754;2022-10-26T00:13:42;94368.69;;;16.89;73.76
19783;BME280;10051;40.294;-3.754;2022-10-26T00:16:13;94425.72;;;17.27;73.97
19783;BME280;10051;40.294;-3.754;2022-10-26T00:18:39;94384.94;;;17.14;73.75
19783;BME280;10051;40.294;-3.754;2022-10-26T00:21:06;94423.03;;;17.53;73.62
19783;BME280;10051;40.294;-3.754;2022-10-26T00:23:32;94415.50;;;17.56;73.04
19783;BME280;10051;40.294;-3.754;2022-10-26T00:25:57;94379.78;;;17.27;72.94
19783;BME280;10051;40.294;-3.754;2022-10-26T00:28:23;94407.88;;;17.45;72.85
19783;BME280;10051;40.294;-3.754;2022-10-26T00:30:49;94438.34;;;17.65;72.71
19783;BME280;10051;40.294;-3.754;2022-10-26T00:33:15;94434.88;;;17.65;72.76
19783;BME280;10051;40.294;-3.754;2022-10-26T00:35:41;94430.66;;;17.64;72.34
19783;BME280;10051;40.294;-3.754;2022-10-26T00:38:06;94444.72;;;17.73;71.95
19783;BME280;10051;40.294;-3.754;2022-10-26T00:40:31;94430.66;;;17.64;71.54
19783;BME280;10051;40.294;-3.754;2022-10-26T00:42:57;94438.00;;;17.67;71.02
19783;BME280;10051;40.294;-3.754;2022-10-26T00:45:25;94446.00;;;17.67;71.14
19783;BME280;10051;40.294;-3.754;2022-10-26T00:48:26;94439.28;;;17.52;71.45
19783;BME280;10051;40.294;-3.754;2022-10-26T00:50:54;94444.78;;;17.47;71.98
19783;BME280;10051;40.294;-3.754;2022-10-26T00:53:21;94421.19;;;17.28;71.79
19783;BME280;10051;40.294;-3.754;2022-10-26T00:55:49;94431.66;;;17.33;71.89
19783;BME280;10051;40.294;-3.754;2022-10-26T00:58:16;94434.63;;;17.49;72.29
19783;BME280;10051;40.294;-3.754;2022-10-26T01:00:42;94406.00;;;17.28;72.24
19783;BME280;10051;40.294;-3.754;2022-10-26T01:03:09;94437.28;;;17.40;71.87
19783;BME280;10051;40.294;-3.754;2022-10-26T01:05:37;94421.97;;;17.28;71.34
19783;BME280;10051;40.294;-3.754;2022-10-26T01:08:05;94453.81;;;17.54;71.12
19783;BME280;10051;40.294;-3.754;2022-10-26T01:10:34;94431.50;;;17.38;71.02
19783;BME280;10051;40.294;-3.754;2022-10-26T01:13:00;94438.84;;;17.41;70.87
19783;BME280;10051;40.294;-3.754;2022-10-26T01:24:30;94457.47;;;17.41;69.16
19783;BME280;10051;40.294;-3.754;2022-10-26T01:32:11;94462.91;;;17.45;68.20
19783;BME280;10051;40.294;-3.754;2022-10-26T01:34:59;94464.78;;;17.53;68.37
19783;BME280;10051;40.294;-3.754;2022-10-26T01:37:29;94470.72;;;17.59;67.94
19783;BME280;10051;40.294;-3.754;2022-10-26T01:40:07;94467.44;;;17.44;68.11
19783;BME280;10051;40.294;-3.754;2022-10-26T01:42:43;94474.31;;;17.45;68.23
19783;BME280;10051;40.294;-3.754;2022-10-26T01:45:13;94471.22;;;17.43;68.28
19783;BME280;10051;40.294;-3.754;2022-10-26T01:47:39;94439.19;;;17.04;68.57
19783;BME280;10051;40.294;-3.754;2022-10-26T01:50:06;94457.91;;;17.08;68.87
19783;BME280;10051;40.294;-3.754;2022-10-26T01:52:32;94456.19;;;16.94;69.06
19783;BME280;10051;40.294;-3.754;2022-10-26T01:58:08;94449.13;;;16.90;69.88
19783;BME280;10051;40.294;-3.754;2022-10-26T02:00:40;94462.13;;;17.09;69.77
19783;BME280;10051;40.294;-3.754;2022-10-26T02:03:32;94459.19;;;17.19;69.08
19783;BME280;10051;40.294;-3.754;2022-10-26T02:06:25;94449.66;;;17.09;68.96
19783;BME280;10051;40.294;-3.754;2022-10-26T02:11:43;94399.63;;;16.85;69.36
19783;BME280;10051;40.294;-3.754;2022-10-26T02:14:25;94447.31;;;17.26;69.21
19783;BME280;10051;40.294;-3.754;2022-10-26T02:17:04;94442.13;;;17.20;68.70
19783;BME280;10051;40.294;-3.754;2022-10-26T02:19:46;94435.59;;;17.18;68.98
19783;BME280;10051;40.294;-3.754;2022-10-26T02:22:23;94444.66;;;17.26;68.97
19783;BME280;10051;40.294;-3.754;2022-10-26T02:24:52;94438.06;;;17.14;68.83
19783;BME280;10051;40.294;-3.754;2022-10-26T02:27:41;94421.97;;;17.02;69.15
19783;BME280;10051;40.294;-3.754;2022-10-26T02:30:09;94376.34;;;16.91;69.14
19783;BME280;10051;40.294;-3.754;2022-10-26T02:32:38;94427.44;;;17.32;69.10
19783;BME280;10051;40.294;-3.754;2022-10-26T02:35:05;94400.09;;;17.22;69.15
19783;BME280;10051;40.294;-3.754;2022-10-26T02:37:32;94404.16;;;17.20;68.78
19783;BME280;10051;40.294;-3.754;2022-10-26T02:40:02;94412.13;;;17.11;68.99
19783;BME280;10051;40.294;-3.754;2022-10-26T02:42:29;94395.69;;;16.83;69.85
19783;BME280;10051;40.294;-3.754;2022-10-26T02:45:06;94426.66;;;17.05;69.98
19783;BME280;10051;40.294;-3.754;2022-10-26T02:47:34;94393.38;;;16.81;70.21
19783;BME280;10051;40.294;-3.754;2022-10-26T02:49:59;94420.56;;;17.13;69.58
19783;BME280;10051;40.294;-3.754;2022-10-26T02:55:23;94415.25;;;17.13;68.48
19783;BME280;10051;40.294;-3.754;2022-10-26T02:58:02;94429.94;;;17.19;68.44
19783;BME280;10051;40.294;-3.754;2022-10-26T03:00:29;94416.66;;;17.02;68.81
19783;BME280;10051;40.294;-3.754;2022-10-26T03:02:57;94426.38;;;17.06;68.99
19783;BME280;10051;40.294;-3.754;2022-10-26T03:05:27;94390.56;;;16.86;68.37
19783;BME280;10051;40.294;-3.754;2022-10-26T03:07:55;94412.91;;;17.03;68.33
19783;BME280;10051;40.294;-3.754;2022-10-26T03:10:21;94390.72;;;16.81;68.24
19783;BME280;10051;40.294;-3.754;2022-10-26T03:12:47;94405.09;;;16.80;68.66
19783;BME280;10051;40.294;-3.754;2022-10-26T03:15:13;94398.81;;;16.67;68.92
19783;BME280;10051;40.294;-3.754;2022-10-26T03:17:39;94397.88;;;16.72;69.59
19783;BME280;10051;40.294;-3.754;2022-10-26T03:20:05;94397.59;;;16.73;69.61
19783;BME280;10051;40.294;-3.754;2022-10-26T03:22:31;94402.88;;;16.64;69.65
19783;BME280;10051;40.294;-3.754;2022-10-26T03:24:56;94401.91;;;16.52;70.25
19783;BME280;10051;40.294;-3.754;2022-10-26T03:27:21;94408.66;;;16.49;70.32
19783;BME280;10051;40.294;-3.754;2022-10-26T03:29:47;94420.22;;;16.53;70.83
19783;BME280;10051;40.294;-3.754;2022-10-26T03:32:12;94418.16;;;16.50;70.85
19783;BME280;10051;40.294;-3.754;2022-10-26T03:34:38;94403.81;;;16.51;70.55
19783;BME280;10051;40.294;-3.754;2022-10-26T03:37:03;94413.81;;;16.54;70.29
19783;BME280;10051;40.294;-3.754;2022-10-26T03:39:29;94403.94;;;16.46;70.44
19783;BME280;10051;40.294;-3.754;2022-10-26T03:41:54;94404.09;;;16.49;70.52
19783;BME280;10051;40.294;-3.754;2022-10-26T03:44:20;94384.41;;;16.33;70.58
19783;BME280;10051;40.294;-3.754;2022-10-26T03:46:46;94407.72;;;16.62;70.21
19783;BME280;10051;40.294;-3.754;2022-10-26T03:49:11;94414.94;;;16.88;69.89
19783;BME280;10051;40.294;-3.754;2022-10-26T03:51:36;94361.94;;;16.39;69.66
19783;BME280;10051;40.294;-3.754;2022-10-26T03:54:02;94418.03;;;16.73;69.70
19783;BME280;10051;40.294;-3.754;2022-10-26T03:56:27;94396.63;;;16.52;69.67
19783;BME280;10051;40.294;-3.754;2022-10-26T03:58:53;94425.66;;;16.57;69.67
19783;BME280;10051;40.294;-3.754;2022-10-26T04:01:18;94422.38;;;16.51;69.07
19783;BME280;10051;40.294;-3.754;2022-10-26T04:03:44;94426.47;;;16.75;67.89
19783;BME280;10051;40.294;-3.754;2022-10-26T04:06:09;94404.75;;;16.55;68.39
19783;BME280;10051;40.294;-3.754;2022-10-26T04:08:35;94425.09;;;16.77;68.63
19783;BME280;10051;40.294;-3.754;2022-10-26T04:11:00;94391.16;;;16.65;69.36
19783;BME280;10051;40.294;-3.754;2022-10-26T04:13:26;94420.69;;;16.82;69.94
19783;BME280;10051;40.294;-3.754;2022-10-26T04:15:51;94408.97;;;16.65;71.04
19783;BME280;10051;40.294;-3.754;2022-10-26T04:18:16;94404.44;;;16.48;72.21
19783;BME280;10051;40.294;-3.754;2022-10-26T04:20:42;94385.94;;;16.25;72.86
19783;BME280;10051;40.294;-3.754;2022-10-26T04:23:13;94426.00;;;16.64;72.84
19783;BME280;10051;40.294;-3.754;2022-10-26T04:25:39;94429.59;;;16.77;72.38
19783;BME280;10051;40.294;-3.754;2022-10-26T04:28:05;94373.34;;;16.40;72.63
19783;BME280;10051;40.294;-3.754;2022-10-26T04:30:32;94403.00;;;16.59;72.59
19783;BME280;10051;40.294;-3.754;2022-10-26T04:32:58;94409.59;;;16.71;72.23
19783;BME280;10051;40.294;-3.754;2022-10-26T04:35:24;94419.59;;;16.74;72.00
19783;BME280;10051;40.294;-3.754;2022-10-26T04:37:50;94426.16;;;16.68;72.00
19783;BME280;10051;40.294;-3.754;2022-10-26T04:40:15;94402.81;;;16.38;72.86
19783;BME280;10051;40.294;-3.754;2022-10-26T04:42:41;94432.06;;;16.47;73.69
19783;BME280;10051;40.294;-3.754;2022-10-26T04:45:07;94416.69;;;16.26;74.34
19783;BME280;10051;40.294;-3.754;2022-10-26T04:47:33;94426.88;;;16.33;74.58
19783;BME280;10051;40.294;-3.754;2022-10-26T04:49:58;94400.44;;;16.19;74.79
19783;BME280;10051;40.294;-3.754;2022-10-26T04:52:24;94417.78;;;16.25;74.99
19783;BME280;10051;40.294;-3.754;2022-10-26T04:54:49;94439.97;;;16.29;75.70
19783;BME280;10051;40.294;-3.754;2022-10-26T04:57:15;94370.31;;;15.74;76.15
19783;BME280;10051;40.294;-3.754;2022-10-26T04:59:40;94451.50;;;16.25;76.39
19783;BME280;10051;40.294;-3.754;2022-10-26T05:02:06;94415.69;;;16.04;76.18
19783;BME280;10051;40.294;-3.754;2022-10-26T05:04:31;94432.59;;;16.17;76.02
19783;BME280;10051;40.294;-3.754;2022-10-26T05:06:56;94455.41;;;16.27;76.42
19783;BME280;10051;40.294;-3.754;2022-10-26T05:09:22;94399.75;;;15.96;75.78
19783;BME280;10051;40.294;-3.754;2022-10-26T05:11:47;94464.19;;;16.45;76.00
19783;BME280;10051;40.294;-3.754;2022-10-26T05:14:13;94466.84;;;16.45;76.04
19783;BME280;10051;40.294;-3.754;2022-10-26T05:16:38;94366.91;;;15.83;76.18
19783;BME280;10051;40.294;-3.754;2022-10-26T05:19:03;94466.84;;;16.45;76.37
19783;BME280;10051;40.294;-3.754;2022-10-26T05:21:29;94470.91;;;16.43;76.16
19783;BME280;10051;40.294;-3.754;2022-10-26T05:23:55;94459.81;;;16.41;76.58
19783;BME280;10051;40.294;-3.754;2022-10-26T05:26:21;94431.03;;;16.16;76.96
19783;BME280;10051;40.294;-3.754;2022-10-26T05:28:47;94458.72;;;16.33;77.38
19783;BME280;10051;40.294;-3.754;2022-10-26T05:31:12;94446.06;;;16.30;76.62
19783;BME280;10051;40.294;-3.754;2022-10-26T05:33:38;94437.91;;;16.26;76.98
19783;BME280;10051;40.294;-3.754;2022-10-26T05:36:04;94441.22;;;16.32;76.61
19783;BME280;10051;40.294;-3.754;2022-10-26T05:38:30;94460.16;;;16.48;75.99
19783;BME280;10051;40.294;-3.754;2022-10-26T05:40:55;94382.91;;;16.00;75.15
19783;BME280;10051;40.294;-3.754;2022-10-26T05:43:22;94460.16;;;16.48;74.95
19783;BME280;10051;40.294;-3.754;2022-10-26T05:45:49;94460.25;;;16.34;75.33
19783;BME280;10051;40.294;-3.754;2022-10-26T05:48:15;94429.28;;;16.12;75.16
19783;BME280;10051;40.294;-3.754;2022-10-26T05:50:40;94447.56;;;16.22;75.64
19783;BME280;10051;40.294;-3.754;2022-10-26T05:53:06;94475.13;;;16.44;74.92
19783;BME280;10051;40.294;-3.754;2022-10-26T05:55:31;94359.53;;;15.71;75.07
19783;BME280;10051;40.294;-3.754;2022-10-26T05:57:57;94477.81;;;16.53;74.57
19783;BME280;10051;40.294;-3.754;2022-10-26T06:00:25;94475.25;;;16.39;74.54
19783;BME280;10051;40.294;-3.754;2022-10-26T06:03:20;94469.81;;;16.44;74.38
19783;BME280;10051;40.294;-3.754;2022-10-26T06:05:55;94437.06;;;15.99;75.07
19783;BME280;10051;40.294;-3.754;2022-10-26T06:08:23;94442.63;;;15.89;75.28
19783;BME280;10051;40.294;-3.754;2022-10-26T06:10:49;94406.16;;;15.72;74.78
19783;BME280;10051;40.294;-3.754;2022-10-26T06:13:15;94481.78;;;16.32;74.65
19783;BME280;10051;40.294;-3.754;2022-10-26T06:18:30;94473.84;;;16.32;73.40
19783;BME280;10051;40.294;-3.754;2022-10-26T06:22:01;94475.09;;;16.35;72.22
19783;BME280;10051;40.294;-3.754;2022-10-26T06:24:12;94475.88;;;16.35;71.95
19783;BME280;10051;40.294;-3.754;2022-10-26T06:32:15;94457.41;;;16.22;70.80
19783;BME280;10051;40.294;-3.754;2022-10-26T06:34:45;94447.72;;;16.17;70.68
19783;BME280;10051;40.294;-3.754;2022-10-26T06:37:12;94432.22;;;16.01;70.63
19783;BME280;10051;40.294;-3.754;2022-10-26T06:39:42;94465.38;;;16.22;70.45
19783;BME280;10051;40.294;-3.754;2022-10-26T06:42:10;94445.00;;;15.99;70.74
19783;BME280;10051;40.294;-3.754;2022-10-26T06:44:36;94454.91;;;16.16;69.70
19783;BME280;10051;40.294;-3.754;2022-10-26T06:49:37;94484.19;;;16.43;69.15
19783;BME280;10051;40.294;-3.754;2022-10-26T06:52:17;94405.22;;;15.99;68.70
19783;BME280;10051;40.294;-3.754;2022-10-26T06:54:52;94467.91;;;16.35;68.24
19783;BME280;10051;40.294;-3.754;2022-10-26T06:57:24;94389.22;;;15.82;68.93
19783;BME280;10051;40.294;-3.754;2022-10-26T07:00:04;94481.31;;;16.30;69.85
19783;BME280;10051;40.294;-3.754;2022-10-26T07:02:30;94465.31;;;16.13;70.27
19783;BME280;10051;40.294;-3.754;2022-10-26T07:04:56;94420.53;;;15.80;70.29
19783;BME280;10051;40.294;-3.754;2022-10-26T07:07:24;94471.28;;;16.18;71.13
19783;BME280;10051;40.294;-3.754;2022-10-26T07:09:50;94408.50;;;15.73;71.02
19783;BME280;10051;40.294;-3.754;2022-10-26T07:12:16;94491.56;;;16.14;70.43
19783;BME280;10051;40.294;-3.754;2022-10-26T07:14:41;94464.06;;;16.01;70.21
19783;BME280;10051;40.294;-3.754;2022-10-26T07:17:08;94457.94;;;16.01;69.91
19783;BME280;10051;40.294;-3.754;2022-10-26T07:19:33;94460.31;;;16.02;70.27
19783;BME280;10051;40.294;-3.754;2022-10-26T07:21:59;94491.13;;;16.21;70.81
19783;BME280;10051;40.294;-3.754;2022-10-26T07:24:26;94473.47;;;16.16;70.25
19783;BME280;10051;40.294;-3.754;2022-10-26T07:26:55;94496.22;;;16.49;70.42
19783;BME280;10051;40.294;-3.754;2022-10-26T07:29:22;94318.66;;;15.23;69.90
19783;BME280;10051;40.294;-3.754;2022-10-26T07:31:48;94476.00;;;16.30;70.64
19783;BME280;10051;40.294;-3.754;2022-10-26T07:34:14;94452.06;;;16.13;70.94
19783;BME280;10051;40.294;-3.754;2022-10-26T07:36:39;94481.78;;;16.32;71.30
19783;BME280;10051;40.294;-3.754;2022-10-26T07:39:05;94466.34;;;16.26;70.81
19783;BME280;10051;40.294;-3.754;2022-10-26T07:41:31;94535.94;;;16.63;71.05
19783;BME280;10051;40.294;-3.754;2022-10-26T07:43:57;94522.31;;;16.56;71.53
19783;BME280;10051;40.294;-3.754;2022-10-26T07:46:22;94489.00;;;16.32;72.43
19783;BME280;10051;40.294;-3.754;2022-10-26T07:48:48;94454.69;;;16.04;72.35
19783;BME280;10051;40.294;-3.754;2022-10-26T07:51:13;94517.25;;;16.37;71.52
19783;BME280;10051;40.294;-3.754;2022-10-26T07:53:39;94475.78;;;16.09;71.30
19783;BME280;10051;40.294;-3.754;2022-10-26T07:56:05;94496.25;;;16.17;70.82
19783;BME280;10051;40.294;-3.754;2022-10-26T07:58:30;94549.72;;;16.42;70.43
19783;BME280;10051;40.294;-3.754;2022-10-26T08:00:56;94496.53;;;16.16;70.48
19783;BME280;10051;40.294;-3.754;2022-10-26T08:03:21;94596.41;;;16.75;71.00
19783;BME280;10051;40.294;-3.754;2022-10-26T08:05:48;94535.00;;;16.27;71.08
19783;BME280;10051;40.294;-3.754;2022-10-26T08:08:18;94600.63;;;16.76;71.10
19783;BME280;10051;40.294;-3.754;2022-10-26T08:10:44;94528.94;;;16.35;71.61
19783;BME280;10051;40.294;-3.754;2022-10-26T08:13:11;94598.59;;;16.82;70.58
19783;BME280;10051;40.294;-3.754;2022-10-26T08:15:37;94598.47;;;16.87;69.96
19783;BME280;10051;40.294;-3.754;2022-10-26T08:18:02;94533.03;;;16.42;70.57
19783;BME280;10051;40.294;-3.754;2022-10-26T08:20:28;94555.09;;;16.51;70.58
19783;BME280;10051;40.294;-3.754;2022-10-26T08:22:57;94589.53;;;16.83;69.93
19783;BME280;10051;40.294;-3.754;2022-10-26T08:25:23;94621.53;;;17.09;70.30
19783;BME280;10051;40.294;-3.754;2022-10-26T08:27:48;94617.78;;;17.10;70.04
19783;BME280;10051;40.294;-3.754;2022-10-26T08:30:14;94565.34;;;16.84;69.56
19783;BME280;10051;40.294;-3.754;2022-10-26T08:32:40;94442.00;;;16.32;67.69
19783;BME280;10051;40.294;-3.754;2022-10-26T08:35:07;94546.38;;;17.17;65.79
19783;BME280;10051;40.294;-3.754;2022-10-26T08:37:33;94608.97;;;17.59;64.60
19783;BME280;10051;40.294;-3.754;2022-10-26T08:39:58;94619.16;;;17.74;64.61
19783;BME280;10051;40.294;-3.754;2022-10-26T08:42:32;94628.84;;;17.88;62.70
19783;BME280;10051;40.294;-3.754;2022-10-26T08:45:09;94608.50;;;17.83;62.70
19783;BME280;10051;40.294;-3.754;2022-10-26T08:47:46;94484.94;;;17.10;61.98
19783;BME280;10051;40.294;-3.754;2022-10-26T08:50:38;94634.97;;;18.15;61.81
19783;BME280;10051;40.294;-3.754;2022-10-26T08:56:05;94649.16;;;18.36;60.85
19783;BME280;10051;40.294;-3.754;2022-10-26T08:58:40;94645.25;;;18.42;60.46
19783;BME280;10051;40.294;-3.754;2022-10-26T09:01:10;94635.13;;;18.27;59.84
19783;BME280;10051;40.294;-3.754;2022-10-26T09:03:35;94655.25;;;18.46;60.37
19783;BME280;10051;40.294;-3.754;2022-10-26T09:11:09;94654.00;;;18.52;59.67
19783;BME280;10051;40.294;-3.754;2022-10-26T09:20:17;94659.66;;;18.41;58.05
19783;BME280;10051;40.294;-3.754;2022-10-26T09:22:26;94657.16;;;18.45;58.45
19783;BME280;10051;40.294;-3.754;2022-10-26T09:24:59;94639.28;;;18.54;58.08
19783;BME280;10051;40.294;-3.754;2022-10-26T09:27:29;94646.91;;;18.73;57.42
19783;BME280;10051;40.294;-3.754;2022-10-26T09:30:05;94629.63;;;18.80;57.26
19783;BME280;10051;40.294;-3.754;2022-10-26T09:32:40;94662.34;;;19.37;57.70
19783;BME280;10051;40.294;-3.754;2022-10-26T09:37:42;94658.78;;;19.54;55.81
19783;BME280;10051;40.294;-3.754;2022-10-26T09:42:44;94646.44;;;19.49;55.32
19783;BME280;10051;40.294;-3.754;2022-10-26T09:45:21;94657.66;;;19.64;55.06
19783;BME280;10051;40.294;-3.754;2022-10-26T09:47:53;94658.53;;;19.68;54.52
19783;BME280;10051;40.294;-3.754;2022-10-26T09:50:47;94629.97;;;19.47;55.07
19783;BME280;10051;40.294;-3.754;2022-10-26T09:53:13;94656.75;;;19.81;54.20
19783;BME280;10051;40.294;-3.754;2022-10-26T09:55:42;94632.47;;;19.95;53.49
19783;BME280;10051;40.294;-3.754;2022-10-26T09:58:15;94650.69;;;20.14;52.69
19783;BME280;10051;40.294;-3.754;2022-10-26T10:00:43;94624.38;;;20.25;51.69
19783;BME280;10051;40.294;-3.754;2022-10-26T10:03:27;94650.72;;;20.60;50.42
19783;BME280;10051;40.294;-3.754;2022-10-26T10:06:13;94661.16;;;20.86;49.49
19783;BME280;10051;40.294;-3.754;2022-10-26T10:08:40;94654.63;;;20.96;49.86
19783;BME280;10051;40.294;-3.754;2022-10-26T10:11:11;94664.41;;;21.17;49.19
19783;BME280;10051;40.294;-3.754;2022-10-26T10:13:41;94660.66;;;21.30;48.14
19783;BME280;10051;40.294;-3.754;2022-10-26T10:16:13;94581.72;;;20.62;46.65
19783;BME280;10051;40.294;-3.754;2022-10-26T10:18:52;94497.22;;;19.86;47.31
19783;BME280;10051;40.294;-3.754;2022-10-26T10:21:18;94640.41;;;20.71;47.12
19783;BME280;10051;40.294;-3.754;2022-10-26T10:23:48;94575.94;;;20.14;48.18
19783;BME280;10051;40.294;-3.754;2022-10-26T10:26:16;94598.78;;;20.24;47.28
19783;BME280;10051;40.294;-3.754;2022-10-26T10:28:42;94674.16;;;20.75;46.97
19783;BME280;10051;40.294;-3.754;2022-10-26T10:31:19;94670.13;;;20.69;47.41
19783;BME280;10051;40.294;-3.754;2022-10-26T10:33:46;94610.94;;;20.33;48.17
19783;BME280;10051;40.294;-3.754;2022-10-26T10:36:18;94631.16;;;20.68;47.56
19783;BME280;10051;40.294;-3.754;2022-10-26T10:38:48;94667.88;;;21.17;46.42
19783;BME280;10051;40.294;-3.754;2022-10-26T10:41:32;94685.81;;;21.29;45.80
19783;BME280;10051;40.294;-3.754;2022-10-26T10:47:18;94689.16;;;21.51;45.23
19783;BME280;10051;40.294;-3.754;2022-10-26T10:49:52;94626.66;;;21.18;44.48
19783;BME280;10051;40.294;-3.754;2022-10-26T10:52:27;94686.91;;;21.53;45.00
19783;BME280;10051;40.294;-3.754;2022-10-26T10:57:35;94687.50;;;21.46;45.83
19783;BME280;10051;40.294;-3.754;2022-10-26T11:00:05;94688.03;;;21.52;45.41
19783;BME280;10051;40.294;-3.754;2022-10-26T11:08:11;94696.63;;;21.33;45.39
19783;BME280;10051;40.294;-3.754;2022-10-26T11:10:46;94675.34;;;21.12;45.56
19783;BME280;10051;40.294;-3.754;2022-10-26T11:13:21;94693.16;;;21.20;46.22
19783;BME280;10051;40.294;-3.754;2022-10-26T11:15:53;94646.91;;;20.82;46.21
19783;BME280;10051;40.294;-3.754;2022-10-26T11:18:32;94707.44;;;21.24;46.69
19783;BME280;10051;40.294;-3.754;2022-10-26T11:21:14;94662.63;;;20.96;46.07
19783;BME280;10051;40.294;-3.754;2022-10-26T11:23:51;94709.91;;;21.29;46.18
19783;BME280;10051;40.294;-3.754;2022-10-26T11:26:26;94706.78;;;21.39;45.49
19783;BME280;10051;40.294;-3.754;2022-10-26T11:29:10;94703.66;;;21.37;45.50
19783;BME280;10051;40.294;-3.754;2022-10-26T11:31:42;94697.66;;;21.41;45.15
19783;BME280;10051;40.294;-3.754;2022-10-26T11:34:36;94713.78;;;21.44;44.77
19783;BME280;10051;40.294;-3.754;2022-10-26T11:40:01;94678.44;;;21.14;45.20
19783;BME280;10051;40.294;-3.754;2022-10-26T11:42:41;94713.00;;;21.44;44.60
19783;BME280;10051;40.294;-3.754;2022-10-26T11:45:16;94640.03;;;21.06;45.09
19783;BME280;10051;40.294;-3.754;2022-10-26T11:48:00;94683.34;;;21.49;45.31
19783;BME280;10051;40.294;-3.754;2022-10-26T11:50:32;94589.34;;;20.97;44.96
19783;BME280;10051;40.294;-3.754;2022-10-26T11:53:08;94693.72;;;21.75;44.58
19783;BME280;10051;40.294;-3.754;2022-10-26T11:55:38;94656.84;;;21.68;44.15
19783;BME280;10051;40.294;-3.754;2022-10-26T11:58:05;94632.44;;;21.58;43.93
19783;BME280;10051;40.294;-3.754;2022-10-26T12:00:31;94637.75;;;21.82;44.35
19783;BME280;10051;40.294;-3.754;2022-10-26T12:03:06;94692.09;;;22.40;44.23
19783;BME280;10051;40.294;-3.754;2022-10-26T12:08:35;94664.88;;;22.38;43.87
19783;BME280;10051;40.294;-3.754;2022-10-26T12:11:20;94690.97;;;22.53;43.54
19783;BME280;10051;40.294;-3.754;2022-10-26T12:13:56;94704.00;;;22.55;42.84
19783;BME280;10051;40.294;-3.754;2022-10-26T12:19:27;94704.97;;;22.47;43.74
19783;BME280;10051;40.294;-3.754;2022-10-26T12:21:54;94696.00;;;22.42;43.69
19783;BME280;10051;40.294;-3.754;2022-10-26T12:27:05;94658.19;;;22.32;44.90
19783;BME280;10051;40.294;-3.754;2022-10-26T12:31:56;94682.47;;;22.96;43.98
19783;BME280;10051;40.294;-3.754;2022-10-26T12:39:30;94672.63;;;23.16;42.83
19783;BME280;10051;40.294;-3.754;2022-10-26T12:44:37;94682.28;;;23.05;42.86
19783;BME280;10051;40.294;-3.754;2022-10-26T12:47:08;94681.34;;;22.97;42.93
19783;BME280;10051;40.294;-3.754;2022-10-26T13:09:16;94681.13;;;22.57;42.81
19783;BME280;10051;40.294;-3.754;2022-10-26T13:11:55;94660.19;;;22.47;42.34
19783;BME280;10051;40.294;-3.754;2022-10-26T13:14:24;94679.44;;;22.53;43.34
19783;BME280;10051;40.294;-3.754;2022-10-26T13:16:51;94676.53;;;22.58;43.62
19783;BME280;10051;40.294;-3.754;2022-10-26T13:22:02;94662.31;;;22.70;44.13
19783;BME280;10051;40.294;-3.754;2022-10-26T13:24:29;94659.34;;;22.75;43.77
19783;BME280;10051;40.294;-3.754;2022-10-26T13:32:32;94646.06;;;22.79;43.31
19783;BME280;10051;40.294;-3.754;2022-10-26T13:35:01;94577.16;;;22.35;43.22
19783;BME280;10051;40.294;-3.754;2022-10-26T13:37:30;94631.09;;;22.78;43.32
19783;BME280;10051;40.294;-3.754;2022-10-26T13:39:58;94550.34;;;22.19;43.53
19783;BME280;10051;40.294;-3.754;2022-10-26T13:42:26;94609.03;;;22.52;43.69
19783;BME280;10051;40.294;-3.754;2022-10-26T13:45:10;94596.56;;;22.44;43.95
19783;BME280;10051;40.294;-3.754;2022-10-26T13:48:00;94619.25;;;22.63;44.09
19783;BME280;10051;40.294;-3.754;2022-10-26T13:50:31;94551.41;;;22.14;42.78
19783;BME280;10051;40.294;-3.754;2022-10-26T13:53:06;94604.06;;;22.38;42.85
19783;BME280;10051;40.294;-3.754;2022-10-26T13:56:07;94625.47;;;22.51;43.34
19783;BME280;10051;40.294;-3.754;2022-10-26T13:58:41;94624.16;;;22.45;44.38
19783;BME280;10051;40.294;-3.754;2022-10-26T14:03:35;94566.84;;;22.05;43.95
19783;BME280;10051;40.294;-3.754;2022-10-26T14:08:39;94641.88;;;22.49;43.56
19783;BME280;10051;40.294;-3.754;2022-10-26T14:11:10;94635.81;;;22.52;43.39
19783;BME280;10051;40.294;-3.754;2022-10-26T14:13:37;94606.19;;;22.33;42.95
19783;BME280;10051;40.294;-3.754;2022-10-26T14:16:06;94611.75;;;22.40;42.62
19783;BME280;10051;40.294;-3.754;2022-10-26T14:18:33;94604.13;;;22.42;43.24
19783;BME280;10051;40.294;-3.754;2022-10-26T14:21:03;94634.44;;;22.58;43.04
19783;BME280;10051;40.294;-3.754;2022-10-26T14:23:57;94630.22;;;22.57;43.85
19783;BME280;10051;40.294;-3.754;2022-10-26T14:26:28;94629.41;;;22.57;43.83
19783;BME280;10051;40.294;-3.754;2022-10-26T14:28:56;94586.16;;;22.26;43.37
19783;BME280;10051;40.294;-3.754;2022-10-26T14:31:30;94598.16;;;22.33;43.36
19783;BME280;10051;40.294;-3.754;2022-10-26T14:33:58;94616.56;;;22.34;43.85
19783;BME280;10051;40.294;-3.754;2022-10-26T14:36:48;94614.19;;;22.45;43.24
19783;BME280;10051;40.294;-3.754;2022-10-26T14:39:37;94623.78;;;22.46;42.63
19783;BME280;10051;40.294;-3.754;2022-10-26T14:42:14;94597.81;;;22.34;42.96
19783;BME280;10051;40.294;-3.754;2022-10-26T14:44:42;94620.44;;;22.49;43.71
19783;BME280;10051;40.294;-3.754;2022-10-26T14:47:22;94613.50;;;22.48;42.77
19783;BME280;10051;40.294;-3.754;2022-10-26T14:49:48;94595.22;;;22.38;43.02
19783;BME280;10051;40.294;-3.754;2022-10-26T14:52:20;94614.38;;;22.52;42.39
19783;BME280;10051;40.294;-3.754;2022-10-26T14:54:58;94569.03;;;22.15;42.97
19783;BME280;10051;40.294;-3.754;2022-10-26T14:57:35;94623.28;;;22.56;43.99
19783;BME280;10051;40.294;-3.754;2022-10-26T15:00:21;94608.06;;;22.45;43.68
19783;BME280;10051;40.294;-3.754;2022-10-26T15:02:51;94575.25;;;22.19;44.17
19783;BME280;10051;40.294;-3.754;2022-10-26T15:05:29;94588.75;;;22.39;43.91